Rolla, North Dakota
Current Conditions -  °F | °C
As of 7:35 PM on Monday 20 Oct 2014 (Local Time) from K06D Reporting Station
Clear Clear  
Wind Chill: 12°   Ceiling: Unl
Heat Index: 12°   Visibility: 10mi
Dew Point:   Wind: 13mph
Humidity: 58%   Direction: 150°SSE
Pressure: 29.97"   Gusts: NA
Location:  48.86°N, 99.62°W
Report Text: K06D 210035Z AUTO 15011KT 10SM CLR 12/04 A2997 RMK AO2
Loading
Personal Weather Stations






























Interactive Weather Map
Tropical Storm Tracking
New forecast layout! Learn more

10-Day Weather Forecast

Advertisements
Track Severe Weather on mobile